createdAt,value
2022-09-28T00:01:22.001Z,12.64
2022-09-28T00:06:26.087Z,12.55
2022-09-28T00:11:29.366Z,12.48
2022-09-28T00:16:36.188Z,12.42
2022-09-28T00:21:40.046Z,12.39
2022-09-28T00:26:50.510Z,12.41
2022-09-28T00:32:02.637Z,12.39
2022-09-28T00:37:06.656Z,12.37
2022-09-28T00:42:11.718Z,12.37
2022-09-28T00:47:14.408Z,12.39
2022-09-28T00:52:25.607Z,12.40
2022-09-28T00:57:29.124Z,12.41
2022-09-28T01:02:32.265Z,12.41
2022-09-28T01:07:36.018Z,12.43
2022-09-28T01:12:38.759Z,12.45
2022-09-28T01:17:44.638Z,12.48
2022-09-28T01:23:02.587Z,12.45
2022-09-28T01:28:08.458Z,12.36
2022-09-28T01:33:14.335Z,12.21
2022-09-28T01:38:22.256Z,12.07
2022-09-28T01:43:26.855Z,11.99
2022-09-28T01:48:33.982Z,11.91
2022-09-28T01:53:39.355Z,11.76
2022-09-28T01:58:46.776Z,11.63
2022-09-28T02:03:53.571Z,11.53
2022-09-28T02:08:59.853Z,11.45
2022-09-28T02:14:05.219Z,11.40
2022-09-28T02:19:13.176Z,11.35
2022-09-28T02:24:21.588Z,11.26
2022-09-28T02:29:25.393Z,11.10
2022-09-28T02:34:28.094Z,10.90
2022-09-28T02:39:31.916Z,10.70
2022-09-28T02:44:44.859Z,10.57
2022-09-28T02:49:47.554Z,10.50
2022-09-28T02:54:50.461Z,10.45
2022-09-28T02:59:56.962Z,10.44
2022-09-28T03:05:18.292Z,10.43
2022-09-28T03:10:20.982Z,10.45
2022-09-28T03:15:30.745Z,10.48
2022-09-28T03:20:34.127Z,10.50
2022-09-28T03:25:36.867Z,10.52
2022-09-28T03:30:39.559Z,10.53
2022-09-28T03:35:42.793Z,10.53
2022-09-28T03:40:52.913Z,10.54
2022-09-28T03:45:57.115Z,10.56
2022-09-28T03:51:01.419Z,10.56
2022-09-28T03:56:08.722Z,10.57
2022-09-28T04:01:16.629Z,10.58
2022-09-28T04:06:20.093Z,10.58
2022-09-28T04:11:24.299Z,10.59
2022-09-28T04:16:27.449Z,10.60
2022-09-28T04:21:30.614Z,10.62
2022-09-28T04:26:33.312Z,10.65
2022-09-28T04:31:40.882Z,10.66
2022-09-28T04:36:45.201Z,10.68
2022-09-28T04:41:48.375Z,10.72
2022-09-28T04:46:51.072Z,10.75
2022-09-28T04:51:53.977Z,10.75
2022-09-28T04:56:57.392Z,10.76
2022-09-28T05:02:00.360Z,10.78
2022-09-28T05:07:03.202Z,10.79
2022-09-28T05:12:06.009Z,10.82
2022-09-28T05:17:10.240Z,10.84
2022-09-28T05:22:15.019Z,10.90
2022-09-28T05:27:17.680Z,10.95
2022-09-28T05:32:20.895Z,11.01
2022-09-28T05:37:23.590Z,11.08
2022-09-28T05:42:26.392Z,11.13
2022-09-28T05:47:29.499Z,11.16
2022-09-28T05:52:32.731Z,11.17
2022-09-28T05:57:35.410Z,11.22
2022-09-28T06:02:38.151Z,11.23
2022-09-28T06:07:41.121Z,11.23
2022-09-28T06:12:45.042Z,11.25
2022-09-28T06:17:48.152Z,11.26
2022-09-28T06:22:51.981Z,11.26
2022-09-28T06:27:55.706Z,11.26
2022-09-28T06:32:59.833Z,11.29
2022-09-28T06:38:02.632Z,11.30
2022-09-28T06:43:10.529Z,11.31
2022-09-28T06:48:13.667Z,11.31
2022-09-28T06:53:16.467Z,11.29
2022-09-28T06:58:20.495Z,11.31
2022-09-28T07:03:23.603Z,11.34
2022-09-28T07:08:29.070Z,11.36
2022-09-28T07:13:50.723Z,11.40
2022-09-28T07:18:54.230Z,11.38
2022-09-28T07:23:56.926Z,11.34
2022-09-28T07:28:59.643Z,11.32
2022-09-28T07:34:02.708Z,11.33
2022-09-28T07:39:05.640Z,11.35
2022-09-28T07:44:08.440Z,11.38
2022-09-28T07:49:12.484Z,11.41
2022-09-28T07:54:15.373Z,11.53
2022-09-28T07:59:18.944Z,11.66
2022-09-28T08:04:21.796Z,11.74
2022-09-28T08:09:24.497Z,11.74
2022-09-28T08:14:27.815Z,11.66
2022-09-28T08:19:50.477Z,11.60
2022-09-28T08:24:53.277Z,11.69
2022-09-28T08:29:56.117Z,11.81
2022-09-28T08:34:59.904Z,11.98
2022-09-28T08:40:02.719Z,12.34
2022-09-28T08:45:27.122Z,12.82
2022-09-28T08:50:31.864Z,13.15
2022-09-28T08:55:37.929Z,13.21
2022-09-28T09:00:40.643Z,13.22
2022-09-28T09:05:52.353Z,13.89
2022-09-28T09:11:17.884Z,14.54
2022-09-28T09:16:20.616Z,15.45
2022-09-28T09:21:43.070Z,16.60
2022-09-28T09:26:45.951Z,16.76
2022-09-28T09:31:51.418Z,15.85
2022-09-28T09:37:08.557Z,15.51
2022-09-28T09:42:28.352Z,16.43
2022-09-28T09:47:35.558Z,17.68
2022-09-28T09:52:44.447Z,20.77
2022-09-28T09:57:51.809Z,24.39
2022-09-28T10:02:55.270Z,27.27
2022-09-28T10:08:10.623Z,26.98
2022-09-28T10:13:13.836Z,23.42
2022-09-28T10:18:19.401Z,20.80
2022-09-28T10:23:27.460Z,19.25
2022-09-28T10:28:35.757Z,18.77
2022-09-28T10:33:39.171Z,18.44
2022-09-28T10:38:47.815Z,20.03
2022-09-28T10:44:07.345Z,20.15
2022-09-28T10:49:17.890Z,18.81
2022-09-28T10:54:22.026Z,17.79
2022-09-28T10:59:31.389Z,17.44
2022-09-28T11:04:38.787Z,17.93
2022-09-28T11:09:45.149Z,20.20
2022-09-28T11:14:52.998Z,20.57
2022-09-28T11:19:56.925Z,18.70
2022-09-28T11:25:13.240Z,17.11
2022-09-28T11:30:23.492Z,16.02
2022-09-28T11:35:44.543Z,15.46
2022-09-28T11:40:53.541Z,15.32
2022-09-28T11:46:11.519Z,15.82
2022-09-28T11:51:24.897Z,16.65
2022-09-28T11:56:39.374Z,17.35
2022-09-28T12:01:58.955Z,19.43
2022-09-28T12:07:08.631Z,22.86
2022-09-28T12:12:22.602Z,23.69
2022-09-28T12:17:29.823Z,25.74
2022-09-28T12:22:35.167Z,28.12
2022-09-28T12:27:41.342Z,28.91
2022-09-28T12:32:46.813Z,29.32
2022-09-28T12:37:53.909Z,26.88
2022-09-28T12:43:03.572Z,23.99
2022-09-28T12:48:17.330Z,23.71
2022-09-28T12:53:25.996Z,23.35
2022-09-28T12:58:38.199Z,25.08
2022-09-28T13:03:52.464Z,25.51
2022-09-28T13:09:14.254Z,24.64
2022-09-28T13:14:19.879Z,22.51
2022-09-28T13:19:37.836Z,21.04
2022-09-28T13:24:44.529Z,19.98
2022-09-28T13:29:49.380Z,20.01
2022-09-28T13:34:52.695Z,19.05
2022-09-28T13:39:57.037Z,18.12
2022-09-28T13:45:20.211Z,17.40
2022-09-28T13:50:29.358Z,17.33
2022-09-28T13:55:40.865Z,19.23
2022-09-28T14:00:51.448Z,19.36
2022-09-28T14:06:00.803Z,19.62
2022-09-28T14:11:25.130Z,20.77
2022-09-28T14:16:31.290Z,20.69
2022-09-28T14:21:46.378Z,19.14
2022-09-28T14:27:01.364Z,17.97
2022-09-28T14:32:16.662Z,17.28
2022-09-28T14:37:39.839Z,17.58
2022-09-28T14:43:02.508Z,18.72
2022-09-28T14:48:05.341Z,18.66
2022-09-28T14:53:13.699Z,18.13
2022-09-28T14:58:22.585Z,18.03
2022-09-28T15:03:27.301Z,17.77
2022-09-28T15:08:37.712Z,17.49
2022-09-28T15:13:40.926Z,17.55
2022-09-28T15:19:02.589Z,17.64
2022-09-28T15:24:40.363Z,17.38
2022-09-28T15:29:54.257Z,17.08
2022-09-28T15:34:57.288Z,16.40
2022-09-28T15:40:00.674Z,16.08
2022-09-28T15:45:07.955Z,15.95
2022-09-28T15:50:21.639Z,15.64
2022-09-28T15:55:33.042Z,15.13
2022-09-28T16:00:36.048Z,14.62
2022-09-28T16:05:52.776Z,14.25
2022-09-28T16:11:11.147Z,13.88
2022-09-28T16:16:17.068Z,13.38
2022-09-28T16:21:19.924Z,12.95
2022-09-28T16:26:29.343Z,12.60
2022-09-28T16:31:34.752Z,12.36
2022-09-28T16:36:43.689Z,12.21
2022-09-28T16:41:52.216Z,12.14
2022-09-28T16:46:57.177Z,12.07
2022-09-28T16:52:00.591Z,11.96
2022-09-28T16:57:04.726Z,11.86
2022-09-28T17:02:45.016Z,11.78
2022-09-28T17:07:44.985Z,11.69
2022-09-28T17:12:47.950Z,11.60
2022-09-28T17:17:51.466Z,11.52
2022-09-28T17:22:54.276Z,11.48
2022-09-28T17:27:58.133Z,11.44
2022-09-28T17:33:01.814Z,11.38
2022-09-28T17:38:04.519Z,11.32
2022-09-28T17:43:07.626Z,11.27
2022-09-28T17:48:15.960Z,11.23
2022-09-28T17:53:18.655Z,11.20
2022-09-28T17:58:22.687Z,11.10
2022-09-28T18:03:25.900Z,10.97
2022-09-28T18:08:29.414Z,10.83
2022-09-28T18:13:32.117Z,10.73
2022-09-28T18:18:38.500Z,10.65
2022-09-28T18:23:41.201Z,10.59
2022-09-28T18:28:43.902Z,10.56
2022-09-28T18:33:48.446Z,10.54
2022-09-28T18:38:51.231Z,10.54
2022-09-28T18:44:00.623Z,10.53
2022-09-28T18:49:06.164Z,10.52
2022-09-28T18:54:08.972Z,10.54
2022-09-28T18:59:12.630Z,10.54
2022-09-28T19:04:15.904Z,10.51
2022-09-28T19:09:20.519Z,10.50
2022-09-28T19:14:23.298Z,10.51
2022-09-28T19:19:26.051Z,10.52
2022-09-28T19:24:29.263Z,10.54
2022-09-28T19:29:31.963Z,10.53
2022-09-28T19:34:34.762Z,10.53
2022-09-28T19:39:37.462Z,10.52
2022-09-28T19:44:40.162Z,10.50
2022-09-28T19:49:42.803Z,10.52
2022-09-28T19:54:55.899Z,10.53
2022-09-28T20:00:02.705Z,10.55
2022-09-28T20:05:07.611Z,10.55
2022-09-28T20:10:12.040Z,10.52
2022-09-28T20:15:14.888Z,10.47
2022-09-28T20:20:18.412Z,10.34
2022-09-28T20:25:21.829Z,10.11
2022-09-28T20:30:24.525Z,9.89
2022-09-28T20:35:32.902Z,9.72
2022-09-28T20:40:37.960Z,9.59
2022-09-28T20:45:40.924Z,9.47
2022-09-28T20:50:43.617Z,9.34
